Time;durP1;ratioP1;P1;durP2;ratioP2;P2;SDS_P1;SDS_P2;PMS_P1;PMS_P2;Temp;Humidity;BMP_temperature;BMP_pressure;BME280_temperature;BME280_humidity;BME280_pressure;Samples;Min_cycle;Max_cycle;Signal;HPM_P1;HPM_P2
2023/05/16 00:02:25;;;;;;;1.30;1.20;;;23.10;50.30;;;;;;5072697;28;20055;-56
2023/05/16 00:04:53;;;;;;;1.70;1.30;;;23.20;50.90;;;;;;5072938;28;20084;-57
2023/05/16 00:07:20;;;;;;;1.33;1.10;;;23.10;50.30;;;;;;5071477;28;20056;-56
2023/05/16 00:09:48;;;;;;;1.73;1.30;;;23.10;50.30;;;;;;5073071;28;20052;-56
2023/05/16 00:12:16;;;;;;;1.30;1.20;;;23.20;50.40;;;;;;5072787;28;20051;-56
2023/05/16 00:14:44;;;;;;;1.98;1.15;;;23.10;50.40;;;;;;5072215;28;20080;-57
2023/05/16 00:17:11;;;;;;;1.05;1.00;;;23.10;50.30;;;;;;5072877;28;20088;-57
2023/05/16 00:19:38;;;;;;;1.20;1.10;;;23.10;50.30;;;;;;5072687;28;20439;-59
2023/05/16 00:22:05;;;;;;;1.27;1.00;;;23.10;50.30;;;;;;5072470;28;20059;-56
2023/05/16 00:24:33;;;;;;;1.20;1.10;;;23.10;50.30;;;;;;5072706;28;20051;-56
2023/05/16 00:27:00;;;;;;;1.17;1.00;;;23.10;50.30;;;;;;5072449;28;20059;-56
2023/05/16 00:29:27;;;;;;;1.45;1.30;;;23.10;50.30;;;;;;5072535;28;20052;-56
2023/05/16 00:31:54;;;;;;;1.23;1.17;;;23.10;50.30;;;;;;5071820;28;20049;-56
2023/05/16 00:34:22;;;;;;;1.63;1.15;;;23.10;50.30;;;;;;5072264;28;20052;-56
2023/05/16 00:36:49;;;;;;;1.00;0.98;;;23.10;50.30;;;;;;5072784;28;20052;-55
2023/05/16 00:39:16;;;;;;;1.38;1.23;;;23.10;50.30;;;;;;5072967;28;20499;-56
2023/05/16 00:41:44;;;;;;;1.30;1.20;;;23.10;50.30;;;;;;5076075;28;20044;-58
2023/05/16 00:44:11;;;;;;;0.95;0.90;;;23.10;50.30;;;;;;5075663;28;20052;-56
2023/05/16 00:46:38;;;;;;;1.30;1.00;;;23.10;50.30;;;;;;5076229;28;20059;-58
2023/05/16 00:49:07;;;;;;;1.00;1.00;;;23.10;50.30;;;;;;5075631;28;20044;-56
2023/05/16 00:51:35;;;;;;;1.50;1.20;;;23.10;50.30;;;;;;5075896;28;20063;-55
2023/05/16 00:54:02;;;;;;;2.70;1.20;;;23.10;50.30;;;;;;5076012;28;20048;-58
2023/05/16 00:56:30;;;;;;;1.23;1.10;;;23.10;50.40;;;;;;5076179;28;20059;-56
2023/05/16 00:58:57;;;;;;;1.30;1.10;;;23.10;50.30;;;;;;5076312;28;20473;-60
2023/05/16 01:01:26;;;;;;;1.10;1.10;;;23.10;50.30;;;;;;5074975;28;20052;-55
2023/05/16 01:03:54;;;;;;;1.20;1.00;;;23.10;50.30;;;;;;5075171;28;20067;-56
2023/05/16 01:06:21;;;;;;;1.27;1.17;;;23.10;50.30;;;;;;5075935;28;20048;-55
2023/05/16 01:08:48;;;;;;;1.38;1.02;;;23.10;50.40;;;;;;5075933;28;20049;-56
2023/05/16 01:11:35;;;;;;;1.08;0.98;;;23.10;50.40;;;;;;5075515;28;20052;-56
2023/05/16 01:14:28;;;;;;;1.00;0.95;;;23.10;50.40;;;;;;5075412;28;20044;-56
2023/05/16 01:17:07;;;;;;;0.93;0.93;;;23.10;50.40;;;;;;5069499;28;20135;-55
2023/05/16 01:20:16;;;;;;;1.35;1.02;;;23.10;50.40;;;;;;5055793;28;20049;-57
2023/05/16 01:23:03;;;;;;;1.15;1.00;;;23.10;50.90;;;;;;5054574;28;20135;-56
2023/05/16 01:25:56;;;;;;;0.95;0.90;;;23.10;50.40;;;;;;5055656;28;20056;-56
2023/05/16 01:28:24;;;;;;;0.82;0.82;;;23.00;50.30;;;;;;5055487;28;20064;-55
2023/05/16 01:30:52;;;;;;;0.80;0.80;;;23.00;50.30;;;;;;5054649;28;20041;-56
2023/05/16 01:33:19;;;;;;;1.08;0.98;;;23.00;50.40;;;;;;5064364;28;20048;-55
2023/05/16 01:35:56;;;;;;;1.05;1.05;;;23.10;50.40;;;;;;5074052;28;20483;-56
2023/05/16 01:38:52;;;;;;;1.42;1.33;;;23.00;50.40;;;;;;5075173;28;20048;-56
2023/05/16 01:41:50;;;;;;;2.65;1.38;;;23.00;50.40;;;;;;5074331;28;20055;-55
2023/05/16 01:44:24;;;;;;;0.75;0.75;;;23.00;50.40;;;;;;5074463;28;20048;-56
2023/05/16 01:46:57;;;;;;;0.63;0.63;;;23.00;50.40;;;;;;5075688;28;20460;-53
2023/05/16 01:49:40;;;;;;;0.98;0.82;;;23.00;50.40;;;;;;5075219;28;20499;-55
2023/05/16 01:52:15;;;;;;;1.15;1.05;;;23.00;50.40;;;;;;5075117;28;20052;-56
2023/05/16 01:54:46;;;;;;;1.38;1.17;;;23.00;50.40;;;;;;5073287;28;20474;-55
2023/05/16 01:57:15;;;;;;;1.13;1.02;;;23.00;50.50;;;;;;5074872;28;20052;-57
2023/05/16 01:59:44;;;;;;;1.33;1.23;;;23.00;50.50;;;;;;5075469;28;20119;-56
2023/05/16 02:02:11;;;;;;;0.90;0.90;;;23.00;50.50;;;;;;5074622;28;20053;-56
2023/05/16 02:04:38;;;;;;;0.80;0.80;;;23.00;50.50;;;;;;5074426;28;20054;-56
2023/05/16 02:07:05;;;;;;;1.33;1.15;;;23.00;50.50;;;;;;5074687;28;20492;-55
2023/05/16 02:09:32;;;;;;;0.93;0.70;;;23.00;50.50;;;;;;5074487;28;20078;-55
2023/05/16 02:12:00;;;;;;;0.80;0.80;;;23.00;50.50;;;;;;5074626;28;20136;-56
2023/05/16 02:14:27;;;;;;;1.00;0.90;;;23.00;50.50;;;;;;5074436;28;20489;-56
2023/05/16 02:16:54;;;;;;;1.20;1.10;;;23.00;50.50;;;;;;5073888;28;20052;-55
2023/05/16 02:19:21;;;;;;;1.10;1.00;;;23.00;50.50;;;;;;5074944;28;20048;-56
2023/05/16 02:21:49;;;;;;;0.70;0.70;;;23.00;50.50;;;;;;5074218;28;20106;-55
2023/05/16 02:24:16;;;;;;;1.13;1.13;;;23.00;50.40;;;;;;5073733;28;20044;-56
2023/05/16 02:26:43;;;;;;;1.25;0.98;;;23.00;50.40;;;;;;5074399;28;20070;-54
2023/05/16 02:29:10;;;;;;;1.00;0.95;;;23.00;50.40;;;;;;5074449;28;20049;-55
2023/05/16 02:31:37;;;;;;;0.75;0.75;;;23.00;50.50;;;;;;5074326;28;20048;-56
2023/05/16 02:34:06;;;;;;;2.38;0.85;;;23.00;50.40;;;;;;5073294;28;20044;-56
2023/05/16 02:36:34;;;;;;;1.10;0.90;;;23.00;50.40;;;;;;5073987;28;20045;-56
2023/05/16 02:39:03;;;;;;;0.90;0.90;;;23.00;50.40;;;;;;5074436;28;20051;-57
2023/05/16 02:41:30;;;;;;;0.80;0.80;;;23.00;50.40;;;;;;5072916;28;20064;-56
2023/05/16 02:43:57;;;;;;;0.70;0.70;;;23.00;50.40;;;;;;5073821;28;20052;-56
2023/05/16 02:46:32;;;;;;;1.20;1.10;;;23.00;50.40;;;;;;5074306;28;20066;-55
2023/05/16 02:49:00;;;;;;;1.00;1.00;;;23.00;50.40;;;;;;5073885;28;20051;-55
2023/05/16 02:51:28;;;;;;;0.80;0.80;;;23.00;50.40;;;;;;5074131;28;20044;-56
2023/05/16 02:53:59;;;;;;;0.75;0.75;;;23.00;50.40;;;;;;5073362;28;20567;-56
2023/05/16 02:56:26;;;;;;;0.70;0.60;;;23.00;50.40;;;;;;5073620;28;20044;-55
2023/05/16 02:58:55;;;;;;;0.95;0.80;;;23.00;50.40;;;;;;5073712;28;20508;-55
2023/05/16 03:01:22;;;;;;;0.75;0.75;;;23.00;50.40;;;;;;5056064;28;20132;-56
2023/05/16 03:03:49;;;;;;;0.80;0.80;;;23.00;50.40;;;;;;5053345;28;20048;-56
2023/05/16 03:06:17;;;;;;;0.75;0.75;;;23.00;50.40;;;;;;5053956;28;20049;-56
2023/05/16 03:08:44;;;;;;;1.80;1.00;;;23.00;50.40;;;;;;5053898;28;20045;-57
2023/05/16 03:11:11;;;;;;;1.10;0.77;;;23.00;50.40;;;;;;5053460;28;20045;-56
2023/05/16 03:13:38;;;;;;;0.80;0.80;;;23.00;50.40;;;;;;5053417;28;20059;-56
2023/05/16 03:16:05;;;;;;;0.60;0.60;;;23.00;50.40;;;;;;5053234;28;20049;-56
2023/05/16 03:18:32;;;;;;;1.83;0.90;;;22.90;50.40;;;;;;5053359;28;20489;-56
2023/05/16 03:21:00;;;;;;;1.27;1.10;;;23.00;50.40;;;;;;5053549;28;20049;-56
2023/05/16 03:23:28;;;;;;;0.68;0.68;;;23.00;50.40;;;;;;5064244;28;20050;-56
2023/05/16 03:25:55;;;;;;;0.63;0.63;;;23.00;50.40;;;;;;5073479;28;20124;-56
2023/05/16 03:28:22;;;;;;;0.60;0.60;;;23.00;50.40;;;;;;5073418;28;20063;-56
2023/05/16 03:30:49;;;;;;;2.08;1.15;;;23.00;50.40;;;;;;5073315;28;20059;-56
2023/05/16 03:33:16;;;;;;;0.70;0.70;;;23.00;50.40;;;;;;5072743;28;20072;-56
2023/05/16 03:35:43;;;;;;;0.70;0.70;;;22.90;50.30;;;;;;5073494;28;20045;-56
2023/05/16 03:38:11;;;;;;;0.80;0.80;;;23.00;50.40;;;;;;5071551;28;20449;-58
2023/05/16 03:40:39;;;;;;;1.05;0.90;;;23.00;50.40;;;;;;5073269;28;20067;-56
2023/05/16 03:43:06;;;;;;;0.80;0.80;;;22.90;50.40;;;;;;5072740;28;20056;-56
2023/05/16 03:45:33;;;;;;;0.50;0.50;;;23.00;50.50;;;;;;5054617;28;20083;-56
2023/05/16 03:48:00;;;;;;;0.93;0.80;;;23.00;50.40;;;;;;5054652;28;20081;-56
2023/05/16 03:50:27;;;;;;;0.70;0.70;;;22.90;50.40;;;;;;5071474;28;20060;-56
2023/05/16 03:52:55;;;;;;;0.80;0.80;;;22.90;50.40;;;;;;5052691;28;20053;-56
2023/05/16 03:55:22;;;;;;;1.17;0.90;;;22.90;50.40;;;;;;5070572;28;20049;-56
2023/05/16 03:57:51;;;;;;;0.55;0.55;;;22.90;50.40;;;;;;5077559;28;20048;-56
2023/05/16 04:00:18;;;;;;;0.70;0.70;;;22.90;50.40;;;;;;5063194;28;20053;-57
2023/05/16 04:02:45;;;;;;;0.73;0.73;;;23.00;50.40;;;;;;5052670;28;20049;-55
2023/05/16 04:05:12;;;;;;;0.80;0.80;;;22.90;50.40;;;;;;5052961;28;20469;-56
2023/05/16 04:07:40;;;;;;;0.60;0.60;;;22.90;50.40;;;;;;5052667;28;20086;-55
2023/05/16 04:10:08;;;;;;;0.55;0.55;;;22.90;50.40;;;;;;5052830;28;20139;-56
2023/05/16 04:12:36;;;;;;;0.70;0.70;;;22.90;50.40;;;;;;5052774;28;20060;-55
2023/05/16 04:15:04;;;;;;;0.80;0.80;;;22.90;50.40;;;;;;5055549;28;20120;-54
2023/05/16 04:17:32;;;;;;;0.50;0.50;;;22.90;50.40;;;;;;5056895;28;20048;-57
2023/05/16 04:19:59;;;;;;;0.73;0.70;;;22.90;50.30;;;;;;5056793;28;20107;-57
2023/05/16 04:22:26;;;;;;;0.70;0.70;;;22.90;50.30;;;;;;5056276;28;20063;-56
2023/05/16 04:24:53;;;;;;;0.50;0.50;;;22.90;50.30;;;;;;5056598;28;20076;-56
2023/05/16 04:27:20;;;;;;;0.43;0.43;;;22.90;50.30;;;;;;5056852;28;20053;-57
2023/05/16 04:29:48;;;;;;;1.27;0.65;;;22.90;50.20;;;;;;5056564;28;20044;-55
2023/05/16 04:32:16;;;;;;;0.52;0.40;;;22.90;50.30;;;;;;5056395;28;20052;-56
2023/05/16 04:34:45;;;;;;;0.52;0.52;;;23.00;50.30;;;;;;5056863;28;20048;-57
2023/05/16 04:37:13;;;;;;;0.50;0.50;;;23.00;50.30;;;;;;5056222;28;20055;-55
2023/05/16 04:39:41;;;;;;;1.83;0.68;;;22.90;50.20;;;;;;5059207;28;20496;-57
2023/05/16 04:42:08;;;;;;;0.50;0.50;;;22.90;50.00;;;;;;5076250;28;20079;-57
2023/05/16 04:44:36;;;;;;;1.40;0.50;;;22.90;50.00;;;;;;5076120;28;20044;-56
2023/05/16 04:47:03;;;;;;;0.38;0.38;;;23.00;50.00;;;;;;5076131;28;20108;-56
2023/05/16 04:49:30;;;;;;;0.50;0.50;;;23.00;49.90;;;;;;5057951;28;20378;-57
2023/05/16 04:51:58;;;;;;;0.40;0.40;;;23.00;49.90;;;;;;5064712;28;20135;-56
2023/05/16 04:54:25;;;;;;;0.40;0.40;;;23.00;49.90;;;;;;5083011;28;20056;-56
2023/05/16 04:56:52;;;;;;;0.40;0.30;;;23.00;49.80;;;;;;5077010;28;20048;-55
2023/05/16 04:59:20;;;;;;;0.47;0.47;;;23.00;49.80;;;;;;5073804;28;20049;-56
2023/05/16 05:01:47;;;;;;;0.50;0.50;;;23.00;49.80;;;;;;5075979;28;20048;-56
2023/05/16 05:04:14;;;;;;;0.40;0.40;;;23.00;49.70;;;;;;5074232;28;20135;-56
2023/05/16 05:06:41;;;;;;;0.82;0.40;;;23.00;49.70;;;;;;5075649;28;20052;-58
2023/05/16 05:09:08;;;;;;;0.50;0.50;;;22.90;49.70;;;;;;5075873;28;20041;-57
2023/05/16 05:11:36;;;;;;;0.88;0.70;;;23.00;50.00;;;;;;5075611;28;20056;-56
2023/05/16 05:14:03;;;;;;;0.63;0.63;;;23.00;50.10;;;;;;5074855;28;20044;-58
2023/05/16 05:16:30;;;;;;;1.30;0.70;;;23.00;50.00;;;;;;5074040;28;20056;-59
2023/05/16 05:18:58;;;;;;;0.50;0.50;;;23.00;50.10;;;;;;5073122;28;20049;-59
2023/05/16 05:21:25;;;;;;;1.95;0.88;;;23.00;50.10;;;;;;5073495;28;20381;-60
2023/05/16 05:23:52;;;;;;;1.00;0.80;;;23.00;49.90;;;;;;5065691;28;20071;-59
2023/05/16 05:26:21;;;;;;;0.63;0.63;;;22.90;49.40;;;;;;5073638;28;20127;-59
2023/05/16 05:28:48;;;;;;;1.95;0.75;;;22.90;49.90;;;;;;5069438;28;20059;-59
2023/05/16 05:31:32;;;;;;;3.17;0.60;;;22.80;50.10;;;;;;5070098;28;20044;-59
2023/05/16 05:34:00;;;;;;;1.70;0.40;;;22.80;50.50;;;;;;5069026;28;20508;-59
2023/05/16 05:36:27;;;;;;;0.57;0.47;;;22.70;50.30;;;;;;5069416;28;20062;-59
2023/05/16 05:38:54;;;;;;;0.50;0.50;;;22.70;50.30;;;;;;5068319;28;20143;-59
2023/05/16 05:41:21;;;;;;;0.93;0.88;;;22.80;50.30;;;;;;5059237;28;20468;-58
2023/05/16 05:43:49;;;;;;;3.13;0.60;;;22.80;50.40;;;;;;5063030;28;20714;-61
2023/05/16 05:46:16;;;;;;;1.52;0.88;;;22.70;50.60;;;;;;5063016;28;20051;-58
2023/05/16 05:48:43;;;;;;;1.58;0.98;;;22.70;51.00;;;;;;5062894;28;20053;-63
2023/05/16 05:51:13;;;;;;;2.00;1.63;;;22.80;50.70;;;;;;5062328;28;20501;-58
2023/05/16 05:53:40;;;;;;;1.02;1.00;;;22.80;50.90;;;;;;5058424;28;20094;-60
2023/05/16 05:56:08;;;;;;;1.38;1.27;;;22.80;50.80;;;;;;5063032;28;20504;-60
2023/05/16 05:58:40;;;;;;;0.82;0.82;;;22.70;50.90;;;;;;5062975;28;20052;-63
2023/05/16 06:01:10;;;;;;;1.05;0.60;;;22.70;50.90;;;;;;5062131;28;20123;-63
2023/05/16 06:03:37;;;;;;;0.75;0.60;;;22.70;51.30;;;;;;5062445;28;20054;-59
2023/05/16 06:06:05;;;;;;;0.50;0.50;;;22.80;51.50;;;;;;5063546;28;20527;-59
2023/05/16 06:08:33;;;;;;;5.55;0.75;;;22.80;51.60;;;;;;5065826;28;20040;-62
2023/05/16 06:11:00;;;;;;;0.57;0.57;;;22.80;51.60;;;;;;5064676;28;20151;-57
2023/05/16 06:13:28;;;;;;;1.67;0.80;;;22.90;51.60;;;;;;5060100;28;20052;-62
2023/05/16 06:15:56;;;;;;;0.77;0.40;;;22.90;51.60;;;;;;5061192;28;20734;-56
2023/05/16 06:18:23;;;;;;;2.63;0.85;;;22.90;51.50;;;;;;5065859;28;20056;-62
2023/05/16 06:20:52;;;;;;;1.85;0.68;;;22.90;51.40;;;;;;5063977;28;20049;-63
2023/05/16 06:23:19;;;;;;;3.20;0.93;;;23.00;51.40;;;;;;5060663;28;20132;-61
2023/05/16 06:25:47;;;;;;;3.60;1.38;;;23.00;51.30;;;;;;5062678;28;20063;-61
2023/05/16 06:28:14;;;;;;;0.68;0.65;;;23.00;51.70;;;;;;5060253;28;20052;-60
2023/05/16 06:30:41;;;;;;;0.70;0.60;;;23.10;51.40;;;;;;5059709;28;20048;-61
2023/05/16 06:33:09;;;;;;;1.15;0.52;;;23.10;51.50;;;;;;5062365;28;20109;-58
2023/05/16 06:35:36;;;;;;;1.63;0.70;;;23.20;51.40;;;;;;5061708;28;20056;-59
2023/05/16 06:38:03;;;;;;;3.70;1.10;;;23.20;51.60;;;;;;5064100;28;22785;-61
2023/05/16 06:40:30;;;;;;;0.80;0.80;;;23.30;51.50;;;;;;5063707;28;20040;-67
2023/05/16 06:42:57;;;;;;;0.80;0.80;;;23.30;51.50;;;;;;5065625;28;20056;-59
2023/05/16 06:45:25;;;;;;;2.15;1.00;;;23.30;51.40;;;;;;5045737;28;20520;-60
2023/05/16 06:47:53;;;;;;;1.48;0.60;;;23.30;51.30;;;;;;5067819;28;20113;-60
2023/05/16 06:50:23;;;;;;;3.95;0.98;;;23.40;51.50;;;;;;5069106;28;20114;-56
2023/05/16 06:52:50;;;;;;;0.73;0.70;;;23.40;51.50;;;;;;5067009;28;20063;-59
2023/05/16 06:55:17;;;;;;;1.10;0.90;;;23.40;51.40;;;;;;5068237;28;20576;-55
2023/05/16 06:57:46;;;;;;;4.63;0.80;;;23.40;51.40;;;;;;5059513;28;20122;-55
2023/05/16 07:00:14;;;;;;;1.83;0.82;;;23.50;51.40;;;;;;5064597;28;20134;-58
2023/05/16 07:02:41;;;;;;;1.02;0.82;;;23.50;51.20;;;;;;5064403;28;20040;-58
2023/05/16 07:05:09;;;;;;;3.47;0.80;;;23.50;51.30;;;;;;5066422;28;20135;-59
2023/05/16 07:07:36;;;;;;;2.47;1.20;;;23.50;51.40;;;;;;5062310;28;20048;-59
2023/05/16 07:10:06;;;;;;;1.65;1.08;;;23.50;51.10;;;;;;5064712;28;20047;-59
2023/05/16 07:12:37;;;;;;;1.67;1.00;;;23.50;51.20;;;;;;5061742;28;20048;-58
2023/05/16 07:15:05;;;;;;;2.67;0.80;;;23.50;51.00;;;;;;5063756;28;20445;-60
2023/05/16 07:17:32;;;;;;;5.00;1.20;;;23.50;50.90;;;;;;5063133;28;20052;-58
2023/05/16 07:19:59;;;;;;;3.33;1.25;;;23.50;50.90;;;;;;5063244;28;20044;-59
2023/05/16 07:22:30;;;;;;;1.88;1.23;;;23.50;50.80;;;;;;5055259;28;20052;-58
2023/05/16 07:24:59;;;;;;;6.20;2.35;;;23.50;51.20;;;;;;5061581;28;20050;-59
2023/05/16 07:27:27;;;;;;;4.72;1.73;;;23.50;51.30;;;;;;5060359;28;20604;-58
2023/05/16 07:29:54;;;;;;;5.53;2.10;;;23.50;51.50;;;;;;5063624;28;20056;-58
2023/05/16 07:32:21;;;;;;;3.25;2.13;;;23.40;51.70;;;;;;5063845;28;20370;-58
2023/05/16 07:34:49;;;;;;;6.20;1.65;;;23.40;51.70;;;;;;5062575;28;20114;-59
2023/05/16 07:37:17;;;;;;;3.85;1.92;;;23.40;51.70;;;;;;5059176;28;20049;-58
2023/05/16 07:39:45;;;;;;;3.63;1.98;;;23.40;51.70;;;;;;5062977;28;20064;-59
2023/05/16 07:42:12;;;;;;;6.00;2.25;;;23.40;52.10;;;;;;5075310;28;20048;-59
2023/05/16 07:44:40;;;;;;;2.55;1.38;;;23.40;52.20;;;;;;5063557;28;20079;-58
2023/05/16 07:47:07;;;;;;;2.38;1.10;;;23.40;52.50;;;;;;5066048;28;20159;-59
2023/05/16 07:49:34;;;;;;;4.68;1.30;;;23.40;52.50;;;;;;5061796;28;20491;-59
2023/05/16 07:52:01;;;;;;;1.90;1.30;;;23.40;52.30;;;;;;5059399;28;20041;-59
2023/05/16 07:54:28;;;;;;;2.45;1.20;;;23.40;52.30;;;;;;5061907;28;20170;-59
2023/05/16 07:56:55;;;;;;;5.68;1.45;;;23.50;52.30;;;;;;5063989;28;20045;-58
2023/05/16 07:59:23;;;;;;;1.70;1.20;;;23.50;52.30;;;;;;5064659;28;20084;-58
2023/05/16 08:01:50;;;;;;;2.78;1.67;;;23.60;52.20;;;;;;5061362;28;20040;-59
2023/05/16 08:04:18;;;;;;;2.22;1.35;;;23.60;52.10;;;;;;5061460;28;20131;-59
2023/05/16 08:06:46;;;;;;;1.27;1.10;;;23.60;51.90;;;;;;5067638;28;20447;-60
2023/05/16 08:09:13;;;;;;;3.33;1.20;;;23.60;52.00;;;;;;5063778;28;20398;-59
2023/05/16 08:11:44;;;;;;;1.15;0.90;;;23.60;51.90;;;;;;5061692;28;20045;-59
2023/05/16 08:14:11;;;;;;;2.92;1.02;;;23.60;51.80;;;;;;5064311;28;20052;-60
2023/05/16 08:16:38;;;;;;;1.55;0.90;;;23.70;51.70;;;;;;5069896;28;20097;-59
2023/05/16 08:19:06;;;;;;;2.30;0.90;;;23.70;51.80;;;;;;5061264;28;20420;-59
2023/05/16 08:21:33;;;;;;;2.20;1.35;;;23.70;51.70;;;;;;5074232;28;20052;-60
2023/05/16 08:24:00;;;;;;;1.63;1.20;;;23.70;51.60;;;;;;5065500;28;20056;-61
2023/05/16 08:26:28;;;;;;;2.08;1.38;;;23.70;51.60;;;;;;5064004;28;20063;-61
2023/05/16 08:28:55;;;;;;;1.77;0.98;;;23.70;51.60;;;;;;5062948;28;20048;-60
2023/05/16 08:31:22;;;;;;;2.28;1.00;;;23.70;51.50;;;;;;5057653;28;20351;-59
2023/05/16 08:33:49;;;;;;;2.70;1.20;;;23.70;51.40;;;;;;5063270;28;20132;-56
2023/05/16 08:36:18;;;;;;;2.47;0.93;;;23.70;51.40;;;;;;5064798;28;20070;-58
2023/05/16 08:38:46;;;;;;;2.65;0.80;;;23.70;51.40;;;;;;5061393;28;20041;-58
2023/05/16 08:41:13;;;;;;;5.10;1.40;;;23.70;51.40;;;;;;5065787;28;20141;-58
2023/05/16 08:43:40;;;;;;;0.90;0.88;;;23.70;51.40;;;;;;5060552;28;20048;-58
2023/05/16 08:46:08;;;;;;;2.33;0.88;;;23.70;51.50;;;;;;5063960;28;20457;-57
2023/05/16 08:48:37;;;;;;;0.98;0.75;;;23.70;51.50;;;;;;5059398;28;20087;-59
2023/05/16 08:51:08;;;;;;;2.47;1.33;;;23.70;51.50;;;;;;5062743;28;20496;-55
2023/05/16 08:53:41;;;;;;;1.63;0.93;;;23.70;51.50;;;;;;5062590;28;20434;-59
2023/05/16 08:56:11;;;;;;;0.73;0.73;;;23.80;51.50;;;;;;5062235;28;20124;-58
2023/05/16 08:58:39;;;;;;;1.17;0.77;;;23.80;51.50;;;;;;5063415;28;20118;-57
2023/05/16 09:01:08;;;;;;;2.53;0.90;;;23.80;51.50;;;;;;5066403;28;20531;-58
2023/05/16 09:03:37;;;;;;;2.33;0.70;;;23.80;51.50;;;;;;5063183;28;20045;-58
2023/05/16 09:06:05;;;;;;;0.80;0.80;;;23.80;51.50;;;;;;5068210;28;20049;-62
2023/05/16 09:08:34;;;;;;;1.45;0.95;;;23.80;51.50;;;;;;5062413;28;20048;-58
2023/05/16 09:11:03;;;;;;;1.17;0.82;;;23.80;51.50;;;;;;5064211;28;20044;-57
2023/05/16 09:13:30;;;;;;;0.88;0.73;;;23.80;51.50;;;;;;5061763;28;20036;-57
2023/05/16 09:16:18;;;;;;;1.85;0.90;;;23.80;51.50;;;;;;5065266;28;20072;-56
2023/05/16 09:18:54;;;;;;;1.10;1.00;;;23.90;51.60;;;;;;5062047;28;20484;-57
2023/05/16 09:21:22;;;;;;;0.70;0.70;;;23.90;51.70;;;;;;5064052;28;20499;-56
2023/05/16 09:23:50;;;;;;;1.23;0.98;;;23.90;51.90;;;;;;5061730;28;20060;-56
2023/05/16 09:26:18;;;;;;;4.57;1.10;;;23.90;52.30;;;;;;5068002;28;20466;-57
2023/05/16 09:28:45;;;;;;;1.95;1.00;;;23.90;52.40;;;;;;5064070;28;20139;-50
2023/05/16 09:31:26;;;;;;;1.20;1.00;;;24.00;52.40;;;;;;5063745;28;20064;-50
2023/05/16 09:33:55;;;;;;;1.02;0.80;;;24.00;52.40;;;;;;5065450;28;20111;-51
2023/05/16 09:36:24;;;;;;;2.78;0.98;;;24.00;52.40;;;;;;5068400;28;20049;-52
2023/05/16 09:38:52;;;;;;;1.30;0.73;;;24.10;52.20;;;;;;5065239;28;20102;-51
2023/05/16 09:41:21;;;;;;;2.25;1.02;;;24.10;52.20;;;;;;5069261;28;20040;-54
2023/05/16 09:43:48;;;;;;;1.05;0.70;;;24.10;52.00;;;;;;5063881;28;20079;-51
2023/05/16 09:46:16;;;;;;;1.80;1.00;;;24.10;52.00;;;;;;5063080;28;20045;-53
2023/05/16 09:48:47;;;;;;;2.78;1.10;;;24.20;52.00;;;;;;5063114;28;20144;-52
2023/05/16 09:51:15;;;;;;;3.03;0.90;;;24.20;52.00;;;;;;5063002;28;20056;-54
2023/05/16 09:53:42;;;;;;;3.30;0.90;;;24.30;52.00;;;;;;5067975;28;20080;-50
2023/05/16 09:56:11;;;;;;;1.55;0.60;;;24.30;52.40;;;;;;5065720;28;20101;-50
2023/05/16 09:58:41;;;;;;;1.17;0.95;;;24.30;51.80;;;;;;5064178;28;20044;-50
2023/05/16 10:01:09;;;;;;;1.08;1.00;;;24.30;51.80;;;;;;5067153;28;20094;-49
2023/05/16 10:03:39;;;;;;;2.05;0.95;;;24.30;51.80;;;;;;5069111;28;20098;-49
2023/05/16 10:06:07;;;;;;;1.20;1.10;;;24.30;51.80;;;;;;5047655;28;20036;-50
2023/05/16 10:08:36;;;;;;;1.70;0.70;;;24.30;51.70;;;;;;5066676;28;20048;-51
2023/05/16 10:11:05;;;;;;;1.08;0.85;;;24.40;51.60;;;;;;5065499;28;20421;-51
2023/05/16 10:13:34;;;;;;;1.70;1.27;;;24.40;51.70;;;;;;5072021;28;20776;-60
2023/05/16 10:16:07;;;;;;;1.20;1.10;;;24.40;51.60;;;;;;5067090;28;20048;-58
2023/05/16 10:18:36;;;;;;;3.40;1.10;;;24.30;51.50;;;;;;5069820;28;20059;-58
2023/05/16 10:21:06;;;;;;;1.35;1.23;;;24.40;51.70;;;;;;5065534;28;22254;-58
2023/05/16 10:23:41;;;;;;;3.78;1.40;;;24.30;51.60;;;;;;5071568;28;20056;-58
2023/05/16 10:26:12;;;;;;;2.35;1.20;;;24.30;52.20;;;;;;5066206;28;20499;-60
2023/05/16 10:28:40;;;;;;;1.60;1.10;;;24.20;51.60;;;;;;5068567;28;20044;-59
2023/05/16 10:31:09;;;;;;;1.70;1.42;;;24.10;51.80;;;;;;5068525;28;20044;-57
2023/05/16 10:33:38;;;;;;;2.03;1.30;;;24.10;51.90;;;;;;5079927;28;20056;-56
2023/05/16 10:36:07;;;;;;;1.40;1.30;;;24.00;52.00;;;;;;5068487;28;20166;-58
2023/05/16 10:38:36;;;;;;;5.28;1.42;;;23.90;52.20;;;;;;5065375;28;20079;-57
2023/05/16 10:41:05;;;;;;;1.67;1.58;;;23.90;52.40;;;;;;5065801;28;20133;-57
2023/05/16 10:43:33;;;;;;;3.20;1.87;;;23.80;52.60;;;;;;5070221;28;20044;-57
2023/05/16 10:46:06;;;;;;;3.38;1.83;;;23.80;52.70;;;;;;5068552;28;20390;-61
2023/05/16 10:48:36;;;;;;;2.38;1.85;;;23.80;53.00;;;;;;5066467;28;20109;-58
2023/05/16 10:51:32;;;;;;;2.22;1.95;;;23.80;53.30;;;;;;5061576;28;20052;-57
2023/05/16 10:54:11;;;;;;;5.80;2.53;;;23.80;53.50;;;;;;5066967;28;20071;-57
2023/05/16 10:56:38;;;;;;;5.53;1.90;;;23.90;53.80;;;;;;5061964;28;20053;-60
2023/05/16 10:59:24;;;;;;;4.65;1.80;;;23.80;53.70;;;;;;5059611;28;20110;-60
2023/05/16 11:01:55;;;;;;;3.17;1.80;;;23.80;53.70;;;;;;5062096;28;20505;-59
2023/05/16 11:04:44;;;;;;;9.40;2.65;;;23.80;53.60;;;;;;5069231;28;20408;-57
2023/05/16 11:07:12;;;;;;;2.35;1.95;;;23.80;53.90;;;;;;5062972;28;20455;-57
2023/05/16 11:09:44;;;;;;;7.82;2.70;;;23.80;54.10;;;;;;5062903;28;20166;-57
2023/05/16 11:12:12;;;;;;;;;;;23.80;54.50;;;;;;5063647;28;20044;-58
2023/05/16 11:14:46;;;;;;;2.47;1.88;;;23.90;54.40;;;;;;5062825;28;20201;-53
2023/05/16 11:17:19;;;;;;;3.63;1.90;;;23.80;54.50;;;;;;5068927;28;20048;-49
2023/05/16 11:19:49;;;;;;;1.83;1.55;;;23.90;54.00;;;;;;5066508;28;20499;-53
2023/05/16 11:22:23;;;;;;;3.80;1.75;;;24.10;53.80;;;;;;5064920;28;20083;-49
2023/05/16 11:24:59;;;;;;;2.08;1.52;;;24.20;53.50;;;;;;5064906;28;20048;-54
2023/05/16 11:27:30;;;;;;;2.17;1.40;;;24.30;53.20;;;;;;5065704;28;20185;-55
2023/05/16 11:30:10;;;;;;;4.70;1.58;;;24.40;52.90;;;;;;5062693;28;20040;-50
2023/05/16 11:32:39;;;;;;;1.20;1.00;;;24.50;53.20;;;;;;5068649;28;20075;-52
2023/05/16 11:35:09;;;;;;;1.67;1.27;;;24.50;52.20;;;;;;5065445;28;20055;-49
2023/05/16 11:37:40;;;;;;;1.42;1.33;;;24.60;52.00;;;;;;5065079;28;20064;-52
2023/05/16 11:40:10;;;;;;;1.67;1.40;;;24.70;51.90;;;;;;5064135;28;20064;-54
2023/05/16 11:42:41;;;;;;;1.63;1.17;;;24.80;51.70;;;;;;5065616;28;20055;-55
2023/05/16 11:45:11;;;;;;;5.38;1.17;;;24.80;51.50;;;;;;5061316;28;20080;-53
2023/05/16 11:47:39;;;;;;;1.23;1.10;;;24.90;51.40;;;;;;5071211;28;20055;-54
2023/05/16 11:50:19;;;;;;;3.75;1.50;;;24.90;51.30;;;;;;5068151;28;20138;-53
2023/05/16 11:52:52;;;;;;;1.45;1.10;;;24.90;51.20;;;;;;5067324;28;20052;-52
2023/05/16 11:55:22;;;;;;;0.82;0.82;;;24.90;51.10;;;;;;5067648;28;20045;-55
2023/05/16 11:58:07;;;;;;;1.10;1.00;;;24.90;51.10;;;;;;5063601;28;20129;-55
2023/05/16 12:00:35;;;;;;;5.05;1.30;;;24.90;51.00;;;;;;5067235;28;20508;-51
2023/05/16 12:03:03;;;;;;;3.42;1.25;;;25.00;51.20;;;;;;5067984;28;20098;-55
2023/05/16 12:05:32;;;;;;;4.65;1.90;;;25.00;51.20;;;;;;5062605;28;20139;-54
2023/05/16 12:08:03;;;;;;;1.98;1.10;;;25.00;51.20;;;;;;5065412;28;20500;-55
2023/05/16 12:10:33;;;;;;;1.55;1.45;;;25.00;51.20;;;;;;5065004;28;20075;-55
2023/05/16 12:13:02;;;;;;;4.60;1.38;;;25.00;51.20;;;;;;5068180;28;20124;-54
2023/05/16 12:15:29;;;;;;;4.00;1.13;;;25.10;51.20;;;;;;5064747;28;20079;-55
2023/05/16 12:17:57;;;;;;;1.35;1.30;;;25.10;51.20;;;;;;5066021;28;20048;-53
2023/05/16 12:20:25;;;;;;;1.30;1.20;;;25.10;51.10;;;;;;5062089;28;20492;-54
2023/05/16 12:22:57;;;;;;;3.85;1.52;;;25.10;51.00;;;;;;5066668;28;20115;-49
2023/05/16 12:25:27;;;;;;;1.90;1.63;;;25.20;51.10;;;;;;5068972;28;20434;-56
2023/05/16 12:28:00;;;;;;;3.28;1.33;;;25.20;51.00;;;;;;5067599;28;20049;-54
2023/05/16 12:30:29;;;;;;;2.22;1.38;;;25.10;50.90;;;;;;5065884;28;20047;-53
2023/05/16 12:32:59;;;;;;;1.90;1.80;;;25.20;50.90;;;;;;5065948;28;20127;-50
2023/05/16 12:35:32;;;;;;;1.60;1.50;;;25.20;50.80;;;;;;5068136;28;20131;-51
2023/05/16 12:38:04;;;;;;;1.85;1.55;;;25.20;51.20;;;;;;5066677;28;20118;-49
2023/05/16 12:40:31;;;;;;;3.13;1.40;;;25.20;51.10;;;;;;5073351;28;20106;-52
2023/05/16 12:43:00;;;;;;;3.70;1.50;;;25.20;51.00;;;;;;5069462;28;21101;-56
2023/05/16 12:45:27;;;;;;;5.72;1.60;;;25.20;51.10;;;;;;5072942;28;20052;-54
2023/05/16 12:47:54;;;;;;;1.92;1.73;;;25.30;51.10;;;;;;5070915;28;20071;-55
2023/05/16 12:50:21;;;;;;;2.78;1.90;;;25.30;50.90;;;;;;5069796;28;20059;-56
2023/05/16 12:52:50;;;;;;;2.63;1.90;;;25.30;51.00;;;;;;5067431;28;20068;-57
2023/05/16 12:55:19;;;;;;;2.00;1.88;;;25.30;50.90;;;;;;5070789;28;20277;-55
2023/05/16 12:57:48;;;;;;;2.50;1.52;;;25.40;50.80;;;;;;5069292;28;20056;-57
2023/05/16 13:00:18;;;;;;;1.98;1.67;;;25.40;51.20;;;;;;5071371;28;20048;-55